Welcome to our Virtual Airline
Sign-in:

Flight MFC6612

  • Submitted By: Al Trump
  • Departure Airport: Point Baker SPB (KPB)
  • Arrival Airport: Cape Pole SPB (Z71)
  • Aircraft: DHC2 BEAVERS (N001MM-SK)
  • Flight Time: 00.37.02
  • Date Submitted: 2018/10/04
  • Route: FOLLOW THE TOUR FP
  • Status: Accepted
Flight Details
Gross Revenue:
(5 load / $ 49.00 per unit
$ 245.00
Fuel Cost:
(41.2769 fuel used @ 5.1 / unit)
$ 210.51

Additional Log Information:

View Log

FS[12:26] ----- Flight Opened -----
FS[12:26] Cigar Box - 1.1.4.0
FS[12:26] FS: FSX
FS[12:26] FSUIPC: v4.969
FS[12:26] Flight Number: MFC6612
FS[12:26] FS Aircraft: DHC2 Beaver N5347G Floats
FS[12:26] FS Model: DHC2
FS[12:26] FS Type: Silent
FS[12:26] Departure: KPB
FS[12:26] Arrival: Z71
FS[12:26] Flight Level: 1500
FS[12:26] Flight Type: H
FS[12:26] Passengers: 5
FS[12:26] FOB: 342 lbs
FS[12:26] Gate: n/a
FS[12:26] Crash Detection: Disabled
FS[12:26] Crash Detection Aircraft: Disabled
FS[12:26] Engines: 1 Piston
FS[12:26] NOTE: Boarding has started
FS[12:26] Parking Brake: Engaged
FS[12:26] Main Door Closed
FS[12:26] COM1: 121.05
FS[12:26] COM2: 127.80
FS[12:26] Transponder: 1200
FS[12:26] NAV1: 108.02
FS[12:26] NAV2: 110.60
FS[12:26] ADF1: 284.0
FS[12:26] ADF2: 240.0
FS[12:26] Navigation Mode: NAV
FS[12:26] Light Data: Beacon ON
FS[12:27] Engine 1: Started
FS[12:27] Light Data: Navigation ON
FS[12:27] NAV1: 108.05
FS[12:28] Flaps: Position 1
FS[12:28] Flaps: Position 4
FS[12:28] Flaps: Position 6
FS[12:28] Flaps: Position 5
FS[12:28] Parking Brake: Released
FS[12:28] NOTE: Taxi started
FS[12:29] NOTE: ----- TAKE OFF -----
FS[12:29] GS: 54 knots
FS[12:29] TAS: 55 knots
FS[12:29] IAS: 47 knots
FS[12:29] VS: -16 fpm
FS[12:29] FOB: 341 lbs
FS[12:29] Heading: 325°
FS[12:29] Pitch: 2°
FS[12:29] Bank: 0°
FS[12:29] Aircraft Weight: 4221.18 lbs
FS[12:29] Nearest Airport: KPB
FS[12:29] Distance: 0.42 miles
FS[12:29] Runway: ???
FS[12:29] Ground Surface: Water
FS[12:29] Ground Condition: Normal
FS[12:29] NOTE: Weather Report
FS[12:29] Wind Heading: 338°
FS[12:29] Wind Speed: 0 knots
FS[12:29] OAT: 15° C
FS[12:29] TAT: 15° C
FS[12:29] Precipitation: None
FS[12:29] Dew Point: 5° C
FS[12:29] Visibility: 62 miles
FS[12:29] METAR: KPBF 042053Z AUTO 15008KT 10SM CLR 32/21 A3000 RMK AO2 SLP155 T03220206 56026KPBG 042053Z AUTO 19004KT 10SM CLR 22/18 A2981 RMK AO2 SLP096 60002 T02170178 51013KPBH 042115Z AUTO 04005KT 10SM CLR 07/M02 A3024 RMK AO2 T00731023KPBI 042053Z 07017G23KT 10SM SCT027 SCT075 SCT250 30/23 A2997 RMK AO2 SLP147 CB DSNT SW T03000228 58009 $KPBX 042115Z AUTO 23004KT 10SM CLR 28/21 A3008 RMK AO2 T02750210
FS[12:29] NOTE: Climb started
FS[12:29] Flaps: Position 3
FS[12:29] GS: 60 knots
FS[12:29] TAS: 61 knots
FS[12:29] IAS: 53 knots
FS[12:29] VS: 775 fpm
FS[12:29] Flaps: Position 0
FS[12:29] GS: 60 knots
FS[12:29] TAS: 61 knots
FS[12:29] IAS: 53 knots
FS[12:29] VS: 718 fpm
FS[12:29] View Mode: Virtual Cockpit
FS[12:31] NOTE: TOC reached
FS[12:31] NOTE: Cruise started
FS[12:31] GS: 83 knots
FS[12:31] TAS: 84 knots
FS[12:31] IAS: 76 knots
FS[12:31] VS: 196 fpm
FS[12:31] FOB: 335 lbs
FS[12:31] Heading: 135°
FS[12:31] Pitch: 4°
FS[12:31] Bank: -19°
FS[12:31] Aircraft Weight: 4215.18 lbs
FS[12:46] Recovery: Flight Saved
FS[12:49] NOTE: TOD reached
FS[12:49] NOTE: Descent started
FS[12:49] GS: 122 knots
FS[12:49] TAS: 124 knots
FS[12:49] IAS: 120 knots
FS[12:49] VS: -915 fpm
FS[12:49] FOB: 275 lbs
FS[12:49] Heading: 224°
FS[12:49] Pitch: 5°
FS[12:49] Bank: -1°
FS[12:49] Aircraft Weight: 4155.44 lbs
FS[12:49] NOTE: On approach
FS[12:50] Flaps: Position 3
FS[12:50] GS: 97 knots
FS[12:50] TAS: 98 knots
FS[12:50] IAS: 93 knots
FS[12:50] VS: 149 fpm
FS[12:50] Flaps: Position 4
FS[12:50] GS: 75 knots
FS[12:50] TAS: 77 knots
FS[12:50] IAS: 70 knots
FS[12:50] VS: -1245 fpm
FS[12:50] Flaps: Position 5
FS[12:50] GS: 77 knots
FS[12:50] TAS: 80 knots
FS[12:50] IAS: 73 knots
FS[12:50] VS: -1516 fpm
FS[12:51] Flaps: Position 6
FS[12:51] GS: 68 knots
FS[12:51] TAS: 68 knots
FS[12:51] IAS: 61 knots
FS[12:51] VS: -723 fpm
FS[12:51] NOTE: ----- LANDED -----
FS[12:51] Landing Rate: -188.39 fpm
FS[12:51] GS: 52 knots
FS[12:51] TAS: 53 knots
FS[12:51] IAS: 45 knots
FS[12:51] VS: -191 fpm
FS[12:51] FOB: 273 lbs
FS[12:51] Heading: 268°
FS[12:51] Pitch: 3°
FS[12:51] Bank: 0°
FS[12:51] Aircraft Weight: 4153.97 lbs
FS[12:51] Nearest Airport: Z71
FS[12:51] Distance: 5.13 miles
FS[12:51] Runway: ???
FS[12:51] Ground Surface: Water
FS[12:51] Ground Condition: Normal
FS[12:51] NOTE: Weather Report
FS[12:51] Wind Heading: 338°
FS[12:51] Wind Speed: 0 knots
FS[12:51] OAT: 14° C
FS[12:51] TAT: 15° C
FS[12:51] Precipitation: None
FS[12:51] Dew Point: 4° C
FS[12:51] Visibility: 62 miles
FS[12:51] METAR: No METAR available for Z71.
FS[12:51] View Mode: Virtual Cockpit
FS[12:51] NOTE: Taxi started
FS[12:54] View Mode: Virtual Cockpit
FS[12:54] Flaps: Position 5
FS[12:54] GS: 62 knots
FS[12:54] TAS: 63 knots
FS[12:54] IAS: 55 knots
FS[12:54] VS: 230 fpm
FS[12:54] Flaps: Position 3
FS[12:54] GS: 64 knots
FS[12:54] TAS: 65 knots
FS[12:54] IAS: 57 knots
FS[12:54] VS: 138 fpm
FS[12:55] Flaps: Position 2
FS[12:55] GS: 77 knots
FS[12:55] TAS: 79 knots
FS[12:55] IAS: 73 knots
FS[12:55] VS: 456 fpm
FS[12:55] Flaps: Position 0
FS[12:55] GS: 79 knots
FS[12:55] TAS: 81 knots
FS[12:55] IAS: 75 knots
FS[12:55] VS: 336 fpm
FS[13:02] Flaps: Position 2
FS[13:02] GS: 89 knots
FS[13:02] TAS: 91 knots
FS[13:02] IAS: 85 knots
FS[13:02] VS: -354 fpm
FS[13:02] Flaps: Position 4
FS[13:02] GS: 89 knots
FS[13:02] TAS: 89 knots
FS[13:02] IAS: 84 knots
FS[13:02] VS: -377 fpm
FS[13:02] Flaps: Position 5
FS[13:02] GS: 87 knots
FS[13:02] TAS: 87 knots
FS[13:02] IAS: 81 knots
FS[13:02] VS: -227 fpm
FS[13:02] Flaps: Position 6
FS[13:02] GS: 79 knots
FS[13:02] TAS: 80 knots
FS[13:02] IAS: 74 knots
FS[13:02] VS: 113 fpm
FS[13:02] Flaps: Position 7
FS[13:02] GS: 71 knots
FS[13:02] TAS: 73 knots
FS[13:02] IAS: 66 knots
FS[13:02] VS: -1220 fpm
FS[13:03] NOTE: ----- LANDED -----
FS[13:03] Landing Rate: -397.55 fpm
FS[13:03] GS: 50 knots
FS[13:03] TAS: 49 knots
FS[13:03] IAS: 41 knots
FS[13:03] VS: -391 fpm
FS[13:03] FOB: 251 lbs
FS[13:03] Heading: 160°
FS[13:03] Pitch: 5°
FS[13:03] Bank: -2°
FS[13:03] Aircraft Weight: 4131.48 lbs
FS[13:03] Nearest Airport: 2Z1
FS[13:03] Distance: 0.15 miles
FS[13:03] Runway: ???
FS[13:03] Ground Surface: Water
FS[13:03] Ground Condition: Normal
FS[13:03] NOTE: Weather Report
FS[13:03] Wind Heading: 338°
FS[13:03] Wind Speed: 0 knots
FS[13:03] OAT: 14° C
FS[13:03] TAT: 15° C
FS[13:03] Precipitation: None
FS[13:03] Dew Point: 4° C
FS[13:03] Visibility: 62 miles
FS[13:03] METAR: No METAR available for Z71.
FS[13:03] View Mode: Virtual Cockpit
FS[13:04] NOTE: Arrived
FS[13:04] Parking Brake: Engaged
FS[13:04] Engine 1: Stopped
FS[13:04] Light Data: Beacon OFF
FS[13:04] Light Data: Navigation OFF
FS[13:04] NAV1: 108.02
FS[13:05] Gate: n/a
FS[13:05] NOTE: Flight Completed
FS[13:05] FS Aircraft: DHC2 Beaver N5347G Floats
FS[13:05] FS Model: DHC2
FS[13:05] FS Type: Silent
FS[13:05] FOB: 251 lbs
FS[13:05] Fuel Used: 91 lbs
FS[13:05] Flight Time: 00:37:02
FS[13:05] Flight Time (Dawn): 00:00:00
FS[13:05] Flight Time (Day): 00:37:02
FS[13:05] Flight Time (Dusk): 00:00:00
FS[13:05] Flight Time (Night): 00:00:00
FS[13:05] Total Landings: 2
FS[13:05] MaxSim Rate: 0x
FS[13:05] Cigar Box - 1.1.4.0
FS[13:05] ----- Flight Closed -----

Route Map